< < Back
Terminal Aerodrome Forecast


Current Version              Previous Versions:   1  2  3  4  5  6  7  8  9  

Terminal Aerodrome Forecast

927
FTUS42 KTAE 261726
TAFABY
TAF
KABY 261726Z 2618/2718 09005KT P6SM VCSH BKN040
     FM262300 12003KT P6SM SCT250
     FM271000 00000KT 1SM BR BKN004
     FM271400 VRB03KT P6SM BKN020=



Latest METAR

806
SAUS70 KWBC 262200 RRA
MTRABY
METAR KABY 262153Z 16009KT 10SM FEW060 28/21 A2997 RMK AO2 LTG DSNT E
SLP146 T02830206


USA.gov is the U.S. government's official web portal to all federal, state and local government web resources and services.